Terminal Aerodrome Forecast
Issued by NWS

Home | Current Version | Previous Version | Text Only | Print | Product List | Glossary On
Versions: 1 2 3 4 5 6 7 8 9 10 11 12 13 14 15 16
512
FTUS43 KJKL 201740
TAFSME
TAF
KSME 201740Z 2018/2118 19006KT P6SM SCT025 BKN040
     FM210300 20006KT P6SM VCTS BKN050CB WS020/24035KT
     FM210600 23006KT P6SM VCSH OVC015
     FM211000 VRB03KT 5SM BR VCSH BKN008
     FM211700 36005KT P6SM OVC025=

USA.gov is the U.S. government's official web portal to all federal, state and local government web resources and services.